sensor_id;sensor_type;location;lat;lon;timestamp;P1;durP1;ratioP1;P2;durP2;ratioP2
30020;SDS011;16861;52.294;7.760;2023-10-19T00:00:55;18.45;;;11.85;;
30020;SDS011;16861;52.294;7.760;2023-10-19T00:03:23;18.40;;;11.65;;
30020;SDS011;16861;52.294;7.760;2023-10-19T00:05:50;16.67;;;11.65;;
30020;SDS011;16861;52.294;7.760;2023-10-19T00:08:17;17.15;;;11.93;;
30020;SDS011;16861;52.294;7.760;2023-10-19T00:10:48;17.83;;;11.55;;
30020;SDS011;16861;52.294;7.760;2023-10-19T00:13:28;17.10;;;11.00;;
30020;SDS011;16861;52.294;7.760;2023-10-19T00:15:56;17.40;;;11.60;;
30020;SDS011;16861;52.294;7.760;2023-10-19T00:18:26;15.50;;;11.52;;
30020;SDS011;16861;52.294;7.760;2023-10-19T00:20:53;17.25;;;12.00;;
30020;SDS011;16861;52.294;7.760;2023-10-19T00:23:39;17.75;;;11.85;;
30020;SDS011;16861;52.294;7.760;2023-10-19T00:26:06;16.75;;;11.85;;
30020;SDS011;16861;52.294;7.760;2023-10-19T00:28:46;17.85;;;11.88;;
30020;SDS011;16861;52.294;7.760;2023-10-19T00:31:19;20.63;;;12.77;;
30020;SDS011;16861;52.294;7.760;2023-10-19T00:33:49;21.35;;;12.05;;
30020;SDS011;16861;52.294;7.760;2023-10-19T00:36:21;17.83;;;12.57;;
30020;SDS011;16861;52.294;7.760;2023-10-19T00:38:49;18.60;;;12.93;;
30020;SDS011;16861;52.294;7.760;2023-10-19T00:41:17;17.90;;;12.57;;
30020;SDS011;16861;52.294;7.760;2023-10-19T00:43:50;17.67;;;12.23;;
30020;SDS011;16861;52.294;7.760;2023-10-19T00:46:23;16.90;;;12.02;;
30020;SDS011;16861;52.294;7.760;2023-10-19T00:49:01;15.73;;;10.93;;
30020;SDS011;16861;52.294;7.760;2023-10-19T00:51:34;19.00;;;12.65;;
30020;SDS011;16861;52.294;7.760;2023-10-19T00:57:02;16.15;;;11.63;;
30020;SDS011;16861;52.294;7.760;2023-10-19T00:59:39;16.95;;;11.38;;
30020;SDS011;16861;52.294;7.760;2023-10-19T01:02:14;16.35;;;11.68;;
30020;SDS011;16861;52.294;7.760;2023-10-19T01:04:51;16.92;;;12.15;;
30020;SDS011;16861;52.294;7.760;2023-10-19T01:07:23;17.80;;;11.80;;
30020;SDS011;16861;52.294;7.760;2023-10-19T01:09:53;17.25;;;11.52;;
30020;SDS011;16861;52.294;7.760;2023-10-19T01:12:28;16.15;;;11.70;;
30020;SDS011;16861;52.294;7.760;2023-10-19T01:17:45;16.00;;;11.43;;
30020;SDS011;16861;52.294;7.760;2023-10-19T01:20:21;14.98;;;11.45;;
30020;SDS011;16861;52.294;7.760;2023-10-19T01:23:05;18.55;;;11.63;;
30020;SDS011;16861;52.294;7.760;2023-10-19T01:25:45;15.63;;;11.60;;
30020;SDS011;16861;52.294;7.760;2023-10-19T01:31:12;16.67;;;10.88;;
30020;SDS011;16861;52.294;7.760;2023-10-19T01:33:44;18.00;;;11.45;;
30020;SDS011;16861;52.294;7.760;2023-10-19T01:36:11;13.80;;;10.80;;
30020;SDS011;16861;52.294;7.760;2023-10-19T01:38:51;13.20;;;10.75;;
30020;SDS011;16861;52.294;7.760;2023-10-19T01:41:21;15.27;;;11.70;;
30020;SDS011;16861;52.294;7.760;2023-10-19T01:43:50;12.77;;;9.70;;
30020;SDS011;16861;52.294;7.760;2023-10-19T01:46:21;13.10;;;9.52;;
30020;SDS011;16861;52.294;7.760;2023-10-19T01:48:51;11.43;;;9.38;;
30020;SDS011;16861;52.294;7.760;2023-10-19T01:51:23;11.88;;;9.38;;
30020;SDS011;16861;52.294;7.760;2023-10-19T01:53:56;12.23;;;8.85;;
30020;SDS011;16861;52.294;7.760;2023-10-19T01:56:23;12.25;;;8.82;;
30020;SDS011;16861;52.294;7.760;2023-10-19T01:58:50;13.32;;;8.70;;
30020;SDS011;16861;52.294;7.760;2023-10-19T02:01:21;10.35;;;8.07;;
30020;SDS011;16861;52.294;7.760;2023-10-19T02:03:55;9.38;;;7.25;;
30020;SDS011;16861;52.294;7.760;2023-10-19T02:06:26;8.50;;;6.95;;
30020;SDS011;16861;52.294;7.760;2023-10-19T02:09:04;8.98;;;6.68;;
30020;SDS011;16861;52.294;7.760;2023-10-19T02:11:42;9.10;;;6.25;;
30020;SDS011;16861;52.294;7.760;2023-10-19T02:14:09;8.35;;;5.93;;
30020;SDS011;16861;52.294;7.760;2023-10-19T02:16:42;7.55;;;6.13;;
30020;SDS011;16861;52.294;7.760;2023-10-19T02:19:20;8.32;;;6.35;;
30020;SDS011;16861;52.294;7.760;2023-10-19T02:21:47;8.13;;;6.03;;
30020;SDS011;16861;52.294;7.760;2023-10-19T02:24:15;8.23;;;6.30;;
30020;SDS011;16861;52.294;7.760;2023-10-19T02:26:47;7.25;;;6.50;;
30020;SDS011;16861;52.294;7.760;2023-10-19T02:29:17;7.15;;;5.78;;
30020;SDS011;16861;52.294;7.760;2023-10-19T02:31:45;7.60;;;6.15;;
30020;SDS011;16861;52.294;7.760;2023-10-19T02:34:14;8.02;;;6.40;;
30020;SDS011;16861;52.294;7.760;2023-10-19T02:36:44;7.22;;;6.03;;
30020;SDS011;16861;52.294;7.760;2023-10-19T02:39:12;7.20;;;5.97;;
30020;SDS011;16861;52.294;7.760;2023-10-19T02:41:41;8.07;;;6.45;;
30020;SDS011;16861;52.294;7.760;2023-10-19T02:46:52;7.90;;;6.13;;
30020;SDS011;16861;52.294;7.760;2023-10-19T02:49:27;8.20;;;6.43;;
30020;SDS011;16861;52.294;7.760;2023-10-19T02:51:56;8.25;;;6.07;;
30020;SDS011;16861;52.294;7.760;2023-10-19T02:54:29;6.57;;;5.50;;
30020;SDS011;16861;52.294;7.760;2023-10-19T02:56:59;7.47;;;5.88;;
30020;SDS011;16861;52.294;7.760;2023-10-19T02:59:27;7.60;;;5.80;;
30020;SDS011;16861;52.294;7.760;2023-10-19T03:01:59;7.50;;;5.93;;
30020;SDS011;16861;52.294;7.760;2023-10-19T03:04:45;7.95;;;6.20;;
30020;SDS011;16861;52.294;7.760;2023-10-19T03:07:12;8.80;;;5.72;;
30020;SDS011;16861;52.294;7.760;2023-10-19T03:09:39;7.20;;;5.80;;
30020;SDS011;16861;52.294;7.760;2023-10-19T03:12:14;7.28;;;5.68;;
30020;SDS011;16861;52.294;7.760;2023-10-19T03:14:41;7.88;;;5.95;;
30020;SDS011;16861;52.294;7.760;2023-10-19T03:17:08;7.47;;;5.65;;
30020;SDS011;16861;52.294;7.760;2023-10-19T03:19:35;7.57;;;6.00;;
30020;SDS011;16861;52.294;7.760;2023-10-19T03:22:02;6.78;;;5.72;;
30020;SDS011;16861;52.294;7.760;2023-10-19T03:24:32;6.95;;;5.70;;
30020;SDS011;16861;52.294;7.760;2023-10-19T03:27:10;7.40;;;5.38;;
30020;SDS011;16861;52.294;7.760;2023-10-19T03:29:48;6.20;;;5.20;;
30020;SDS011;16861;52.294;7.760;2023-10-19T03:32:26;5.97;;;5.10;;
30020;SDS011;16861;52.294;7.760;2023-10-19T03:34:54;6.40;;;5.40;;
30020;SDS011;16861;52.294;7.760;2023-10-19T03:37:27;7.82;;;5.78;;
30020;SDS011;16861;52.294;7.760;2023-10-19T03:39:56;6.47;;;5.53;;
30020;SDS011;16861;52.294;7.760;2023-10-19T03:42:24;6.40;;;5.43;;
30020;SDS011;16861;52.294;7.760;2023-10-19T03:45:09;8.02;;;6.40;;
30020;SDS011;16861;52.294;7.760;2023-10-19T03:47:42;7.40;;;5.55;;
30020;SDS011;16861;52.294;7.760;2023-10-19T03:50:10;8.70;;;6.63;;
30020;SDS011;16861;52.294;7.760;2023-10-19T03:52:47;7.40;;;5.72;;
30020;SDS011;16861;52.294;7.760;2023-10-19T03:55:14;7.72;;;5.90;;
30020;SDS011;16861;52.294;7.760;2023-10-19T03:57:50;8.68;;;6.85;;
30020;SDS011;16861;52.294;7.760;2023-10-19T04:00:18;7.07;;;6.10;;
30020;SDS011;16861;52.294;7.760;2023-10-19T04:02:48;9.23;;;6.32;;
30020;SDS011;16861;52.294;7.760;2023-10-19T04:05:17;8.63;;;6.90;;
30020;SDS011;16861;52.294;7.760;2023-10-19T04:07:48;10.82;;;7.15;;
30020;SDS011;16861;52.294;7.760;2023-10-19T04:10:21;8.48;;;6.43;;
30020;SDS011;16861;52.294;7.760;2023-10-19T04:13:01;11.35;;;7.68;;
30020;SDS011;16861;52.294;7.760;2023-10-19T04:15:39;9.77;;;6.95;;
30020;SDS011;16861;52.294;7.760;2023-10-19T04:18:08;10.18;;;7.22;;
30020;SDS011;16861;52.294;7.760;2023-10-19T04:20:38;9.55;;;7.22;;
30020;SDS011;16861;52.294;7.760;2023-10-19T04:23:17;11.18;;;8.02;;
30020;SDS011;16861;52.294;7.760;2023-10-19T04:25:44;9.38;;;7.82;;
30020;SDS011;16861;52.294;7.760;2023-10-19T04:28:13;13.45;;;8.35;;
30020;SDS011;16861;52.294;7.760;2023-10-19T04:30:40;9.90;;;7.60;;
30020;SDS011;16861;52.294;7.760;2023-10-19T04:33:07;10.23;;;7.20;;
30020;SDS011;16861;52.294;7.760;2023-10-19T04:35:36;11.93;;;8.20;;
30020;SDS011;16861;52.294;7.760;2023-10-19T04:38:04;10.73;;;8.25;;
30020;SDS011;16861;52.294;7.760;2023-10-19T04:40:34;10.38;;;7.65;;
30020;SDS011;16861;52.294;7.760;2023-10-19T04:43:02;9.20;;;7.22;;
30020;SDS011;16861;52.294;7.760;2023-10-19T04:45:32;11.82;;;7.68;;
30020;SDS011;16861;52.294;7.760;2023-10-19T04:47:58;11.82;;;7.88;;
30020;SDS011;16861;52.294;7.760;2023-10-19T04:50:25;9.85;;;7.90;;
30020;SDS011;16861;52.294;7.760;2023-10-19T04:52:52;10.70;;;7.80;;
30020;SDS011;16861;52.294;7.760;2023-10-19T04:55:19;11.77;;;8.73;;
30020;SDS011;16861;52.294;7.760;2023-10-19T04:57:45;11.52;;;8.65;;
30020;SDS011;16861;52.294;7.760;2023-10-19T05:00:12;9.25;;;7.82;;
30020;SDS011;16861;52.294;7.760;2023-10-19T05:02:41;12.55;;;8.65;;
30020;SDS011;16861;52.294;7.760;2023-10-19T05:05:08;12.25;;;8.68;;
30020;SDS011;16861;52.294;7.760;2023-10-19T05:07:35;16.55;;;9.75;;
30020;SDS011;16861;52.294;7.760;2023-10-19T05:10:02;11.65;;;8.52;;
30020;SDS011;16861;52.294;7.760;2023-10-19T05:12:31;11.07;;;8.65;;
30020;SDS011;16861;52.294;7.760;2023-10-19T05:14:58;10.48;;;8.38;;
30020;SDS011;16861;52.294;7.760;2023-10-19T05:17:25;9.57;;;7.82;;
30020;SDS011;16861;52.294;7.760;2023-10-19T05:19:53;9.63;;;7.55;;
30020;SDS011;16861;52.294;7.760;2023-10-19T05:22:20;11.73;;;8.70;;
30020;SDS011;16861;52.294;7.760;2023-10-19T05:24:48;12.05;;;8.93;;
30020;SDS011;16861;52.294;7.760;2023-10-19T05:27:14;11.23;;;8.23;;
30020;SDS011;16861;52.294;7.760;2023-10-19T05:29:42;11.10;;;8.50;;
30020;SDS011;16861;52.294;7.760;2023-10-19T05:32:09;9.70;;;8.38;;
30020;SDS011;16861;52.294;7.760;2023-10-19T05:34:36;13.98;;;9.38;;
30020;SDS011;16861;52.294;7.760;2023-10-19T05:37:03;10.80;;;8.63;;
30020;SDS011;16861;52.294;7.760;2023-10-19T05:39:31;13.73;;;8.77;;
30020;SDS011;16861;52.294;7.760;2023-10-19T05:41:59;14.45;;;9.55;;
30020;SDS011;16861;52.294;7.760;2023-10-19T05:44:29;13.70;;;9.30;;
30020;SDS011;16861;52.294;7.760;2023-10-19T05:46:57;11.55;;;8.27;;
30020;SDS011;16861;52.294;7.760;2023-10-19T05:49:25;12.45;;;8.10;;
30020;SDS011;16861;52.294;7.760;2023-10-19T05:51:52;13.48;;;8.77;;
30020;SDS011;16861;52.294;7.760;2023-10-19T05:54:19;10.90;;;8.98;;
30020;SDS011;16861;52.294;7.760;2023-10-19T05:56:45;11.85;;;9.25;;
30020;SDS011;16861;52.294;7.760;2023-10-19T05:59:12;11.57;;;7.97;;
30020;SDS011;16861;52.294;7.760;2023-10-19T06:01:39;11.02;;;7.97;;
30020;SDS011;16861;52.294;7.760;2023-10-19T06:04:13;11.73;;;8.93;;
30020;SDS011;16861;52.294;7.760;2023-10-19T06:06:42;10.13;;;7.95;;
30020;SDS011;16861;52.294;7.760;2023-10-19T06:09:08;13.25;;;9.13;;
30020;SDS011;16861;52.294;7.760;2023-10-19T06:11:35;10.30;;;8.60;;
30020;SDS011;16861;52.294;7.760;2023-10-19T06:14:04;11.45;;;8.48;;
30020;SDS011;16861;52.294;7.760;2023-10-19T06:16:33;10.63;;;8.95;;
30020;SDS011;16861;52.294;7.760;2023-10-19T06:19:00;10.98;;;8.45;;
30020;SDS011;16861;52.294;7.760;2023-10-19T06:21:27;10.75;;;8.25;;
30020;SDS011;16861;52.294;7.760;2023-10-19T06:23:53;10.55;;;8.80;;
30020;SDS011;16861;52.294;7.760;2023-10-19T06:26:21;12.70;;;8.95;;
30020;SDS011;16861;52.294;7.760;2023-10-19T06:28:47;14.23;;;9.43;;
30020;SDS011;16861;52.294;7.760;2023-10-19T06:31:14;10.07;;;8.73;;
30020;SDS011;16861;52.294;7.760;2023-10-19T06:33:41;10.18;;;7.47;;
30020;SDS011;16861;52.294;7.760;2023-10-19T06:36:08;9.77;;;7.75;;
30020;SDS011;16861;52.294;7.760;2023-10-19T06:38:35;10.55;;;8.27;;
30020;SDS011;16861;52.294;7.760;2023-10-19T06:41:12;11.23;;;8.55;;
30020;SDS011;16861;52.294;7.760;2023-10-19T06:43:39;11.82;;;8.82;;
30020;SDS011;16861;52.294;7.760;2023-10-19T06:46:07;10.35;;;8.38;;
30020;SDS011;16861;52.294;7.760;2023-10-19T06:48:38;11.25;;;8.38;;
30020;SDS011;16861;52.294;7.760;2023-10-19T06:51:05;10.07;;;8.13;;
30020;SDS011;16861;52.294;7.760;2023-10-19T06:53:32;9.93;;;7.20;;
30020;SDS011;16861;52.294;7.760;2023-10-19T06:55:59;10.52;;;8.02;;
30020;SDS011;16861;52.294;7.760;2023-10-19T06:58:27;8.93;;;7.13;;
30020;SDS011;16861;52.294;7.760;2023-10-19T07:00:54;9.10;;;7.78;;
30020;SDS011;16861;52.294;7.760;2023-10-19T07:03:25;8.93;;;7.22;;
30020;SDS011;16861;52.294;7.760;2023-10-19T07:05:54;8.60;;;7.35;;
30020;SDS011;16861;52.294;7.760;2023-10-19T07:08:22;11.80;;;8.52;;
30020;SDS011;16861;52.294;7.760;2023-10-19T07:10:49;9.63;;;7.20;;
30020;SDS011;16861;52.294;7.760;2023-10-19T07:13:18;9.77;;;7.35;;
30020;SDS011;16861;52.294;7.760;2023-10-19T07:15:46;10.73;;;6.68;;
30020;SDS011;16861;52.294;7.760;2023-10-19T07:18:15;8.55;;;6.88;;
30020;SDS011;16861;52.294;7.760;2023-10-19T07:20:42;9.52;;;7.10;;
30020;SDS011;16861;52.294;7.760;2023-10-19T07:23:09;9.05;;;6.88;;
30020;SDS011;16861;52.294;7.760;2023-10-19T07:25:36;8.10;;;6.68;;
30020;SDS011;16861;52.294;7.760;2023-10-19T07:28:10;8.23;;;7.05;;
30020;SDS011;16861;52.294;7.760;2023-10-19T07:30:41;9.00;;;6.80;;
30020;SDS011;16861;52.294;7.760;2023-10-19T07:33:11;6.82;;;6.05;;
30020;SDS011;16861;52.294;7.760;2023-10-19T07:35:46;7.40;;;6.30;;
30020;SDS011;16861;52.294;7.760;2023-10-19T07:38:13;10.45;;;6.18;;
30020;SDS011;16861;52.294;7.760;2023-10-19T07:40:41;9.05;;;6.00;;
30020;SDS011;16861;52.294;7.760;2023-10-19T07:43:10;8.98;;;6.80;;
30020;SDS011;16861;52.294;7.760;2023-10-19T07:45:36;8.52;;;6.05;;
30020;SDS011;16861;52.294;7.760;2023-10-19T07:48:04;8.85;;;6.22;;
30020;SDS011;16861;52.294;7.760;2023-10-19T07:50:37;9.25;;;5.93;;
30020;SDS011;16861;52.294;7.760;2023-10-19T07:53:06;8.15;;;5.97;;
30020;SDS011;16861;52.294;7.760;2023-10-19T07:55:33;6.47;;;5.63;;
30020;SDS011;16861;52.294;7.760;2023-10-19T07:58:00;13.80;;;6.60;;
30020;SDS011;16861;52.294;7.760;2023-10-19T08:00:26;9.68;;;5.78;;
30020;SDS011;16861;52.294;7.760;2023-10-19T08:02:55;8.48;;;5.93;;
30020;SDS011;16861;52.294;7.760;2023-10-19T08:05:22;7.40;;;6.05;;
30020;SDS011;16861;52.294;7.760;2023-10-19T08:07:49;8.48;;;6.22;;
30020;SDS011;16861;52.294;7.760;2023-10-19T08:10:16;8.93;;;6.25;;
30020;SDS011;16861;52.294;7.760;2023-10-19T08:12:45;7.80;;;5.47;;
30020;SDS011;16861;52.294;7.760;2023-10-19T08:15:16;7.60;;;5.88;;
30020;SDS011;16861;52.294;7.760;2023-10-19T08:17:47;8.13;;;5.65;;
30020;SDS011;16861;52.294;7.760;2023-10-19T08:20:16;6.72;;;5.82;;
30020;SDS011;16861;52.294;7.760;2023-10-19T08:22:43;7.15;;;5.38;;
30020;SDS011;16861;52.294;7.760;2023-10-19T08:25:13;8.55;;;5.38;;
30020;SDS011;16861;52.294;7.760;2023-10-19T08:27:46;7.60;;;4.93;;
30020;SDS011;16861;52.294;7.760;2023-10-19T08:30:17;6.88;;;5.20;;
30020;SDS011;16861;52.294;7.760;2023-10-19T08:32:47;6.80;;;5.40;;
30020;SDS011;16861;52.294;7.760;2023-10-19T08:35:15;7.45;;;4.95;;
30020;SDS011;16861;52.294;7.760;2023-10-19T08:37:47;7.70;;;5.15;;
30020;SDS011;16861;52.294;7.760;2023-10-19T08:40:14;7.60;;;5.10;;
30020;SDS011;16861;52.294;7.760;2023-10-19T08:42:42;6.35;;;5.13;;
30020;SDS011;16861;52.294;7.760;2023-10-19T08:45:09;5.68;;;4.93;;
30020;SDS011;16861;52.294;7.760;2023-10-19T08:47:43;7.10;;;4.82;;
30020;SDS011;16861;52.294;7.760;2023-10-19T08:50:29;7.32;;;5.10;;
30020;SDS011;16861;52.294;7.760;2023-10-19T08:52:57;7.25;;;5.15;;
30020;SDS011;16861;52.294;7.760;2023-10-19T08:55:25;8.02;;;4.95;;
30020;SDS011;16861;52.294;7.760;2023-10-19T08:58:12;6.35;;;4.82;;
30020;SDS011;16861;52.294;7.760;2023-10-19T09:00:49;9.52;;;5.18;;
30020;SDS011;16861;52.294;7.760;2023-10-19T09:03:23;6.47;;;4.85;;
30020;SDS011;16861;52.294;7.760;2023-10-19T09:05:53;7.50;;;5.00;;
30020;SDS011;16861;52.294;7.760;2023-10-19T09:08:20;10.32;;;5.40;;
30020;SDS011;16861;52.294;7.760;2023-10-19T09:10:49;8.00;;;4.80;;
30020;SDS011;16861;52.294;7.760;2023-10-19T09:13:19;7.63;;;5.20;;
30020;SDS011;16861;52.294;7.760;2023-10-19T09:15:49;11.07;;;5.25;;
30020;SDS011;16861;52.294;7.760;2023-10-19T09:18:24;10.77;;;5.32;;
30020;SDS011;16861;52.294;7.760;2023-10-19T09:20:54;6.07;;;4.82;;
30020;SDS011;16861;52.294;7.760;2023-10-19T09:23:34;6.93;;;4.90;;
30020;SDS011;16861;52.294;7.760;2023-10-19T09:26:03;7.70;;;5.32;;
30020;SDS011;16861;52.294;7.760;2023-10-19T09:28:31;7.97;;;5.05;;
30020;SDS011;16861;52.294;7.760;2023-10-19T09:31:01;7.53;;;5.63;;
30020;SDS011;16861;52.294;7.760;2023-10-19T09:33:28;7.13;;;4.80;;
30020;SDS011;16861;52.294;7.760;2023-10-19T09:35:56;6.03;;;4.82;;
30020;SDS011;16861;52.294;7.760;2023-10-19T09:38:27;7.15;;;4.45;;
30020;SDS011;16861;52.294;7.760;2023-10-19T09:40:54;10.07;;;4.88;;
30020;SDS011;16861;52.294;7.760;2023-10-19T09:43:44;9.60;;;4.88;;
30020;SDS011;16861;52.294;7.760;2023-10-19T09:46:22;6.82;;;5.28;;
30020;SDS011;16861;52.294;7.760;2023-10-19T09:48:58;6.53;;;4.43;;
30020;SDS011;16861;52.294;7.760;2023-10-19T09:51:25;5.65;;;4.20;;
30020;SDS011;16861;52.294;7.760;2023-10-19T09:54:14;8.25;;;4.88;;
30020;SDS011;16861;52.294;7.760;2023-10-19T09:56:40;8.70;;;5.25;;
30020;SDS011;16861;52.294;7.760;2023-10-19T09:59:23;11.60;;;4.75;;
30020;SDS011;16861;52.294;7.760;2023-10-19T10:04:40;7.63;;;4.97;;
30020;SDS011;16861;52.294;7.760;2023-10-19T10:07:08;7.53;;;4.93;;
30020;SDS011;16861;52.294;7.760;2023-10-19T10:09:36;6.55;;;4.55;;
30020;SDS011;16861;52.294;7.760;2023-10-19T10:12:24;6.68;;;4.55;;
30020;SDS011;16861;52.294;7.760;2023-10-19T10:17:28;8.02;;;4.70;;
30020;SDS011;16861;52.294;7.760;2023-10-19T10:22:40;7.85;;;4.55;;
30020;SDS011;16861;52.294;7.760;2023-10-19T10:28:06;8.10;;;4.45;;
30020;SDS011;16861;52.294;7.760;2023-10-19T10:30:35;7.32;;;4.82;;
30020;SDS011;16861;52.294;7.760;2023-10-19T10:33:02;6.82;;;4.25;;
30020;SDS011;16861;52.294;7.760;2023-10-19T10:38:05;6.28;;;4.60;;
30020;SDS011;16861;52.294;7.760;2023-10-19T10:40:44;9.18;;;4.50;;
30020;SDS011;16861;52.294;7.760;2023-10-19T10:43:11;8.05;;;4.47;;
30020;SDS011;16861;52.294;7.760;2023-10-19T10:45:38;7.22;;;4.10;;
30020;SDS011;16861;52.294;7.760;2023-10-19T10:48:14;6.15;;;3.90;;
30020;SDS011;16861;52.294;7.760;2023-10-19T10:50:45;6.65;;;4.03;;
30020;SDS011;16861;52.294;7.760;2023-10-19T10:53:12;8.20;;;4.18;;
30020;SDS011;16861;52.294;7.760;2023-10-19T10:55:41;8.32;;;4.20;;
30020;SDS011;16861;52.294;7.760;2023-10-19T10:58:09;8.13;;;4.63;;
30020;SDS011;16861;52.294;7.760;2023-10-19T11:00:45;6.47;;;4.13;;
30020;SDS011;16861;52.294;7.760;2023-10-19T11:03:17;6.32;;;4.25;;
30020;SDS011;16861;52.294;7.760;2023-10-19T11:05:44;7.95;;;4.22;;
30020;SDS011;16861;52.294;7.760;2023-10-19T11:08:14;8.20;;;4.32;;
30020;SDS011;16861;52.294;7.760;2023-10-19T11:10:47;7.15;;;4.43;;
30020;SDS011;16861;52.294;7.760;2023-10-19T11:13:14;9.48;;;4.35;;
30020;SDS011;16861;52.294;7.760;2023-10-19T11:15:47;6.10;;;4.00;;
30020;SDS011;16861;52.294;7.760;2023-10-19T11:21:16;7.55;;;4.22;;
30020;SDS011;16861;52.294;7.760;2023-10-19T11:23:48;6.93;;;4.05;;
30020;SDS011;16861;52.294;7.760;2023-10-19T11:26:16;6.97;;;3.67;;
30020;SDS011;16861;52.294;7.760;2023-10-19T11:28:46;9.10;;;4.15;;
30020;SDS011;16861;52.294;7.760;2023-10-19T11:31:21;8.32;;;4.40;;
30020;SDS011;16861;52.294;7.760;2023-10-19T11:33:49;8.23;;;4.38;;
30020;SDS011;16861;52.294;7.760;2023-10-19T11:36:18;7.78;;;4.50;;
30020;SDS011;16861;52.294;7.760;2023-10-19T11:38:46;8.48;;;4.32;;
30020;SDS011;16861;52.294;7.760;2023-10-19T11:41:14;8.40;;;4.32;;
30020;SDS011;16861;52.294;7.760;2023-10-19T11:43:42;6.32;;;4.07;;
30020;SDS011;16861;52.294;7.760;2023-10-19T11:46:10;9.63;;;4.50;;
30020;SDS011;16861;52.294;7.760;2023-10-19T11:48:44;7.63;;;4.50;;
30020;SDS011;16861;52.294;7.760;2023-10-19T11:51:11;11.05;;;4.80;;
30020;SDS011;16861;52.294;7.760;2023-10-19T11:53:38;10.45;;;4.57;;
30020;SDS011;16861;52.294;7.760;2023-10-19T11:56:08;5.95;;;4.63;;
30020;SDS011;16861;52.294;7.760;2023-10-19T11:58:36;6.75;;;4.75;;
30020;SDS011;16861;52.294;7.760;2023-10-19T12:01:04;6.15;;;4.35;;
30020;SDS011;16861;52.294;7.760;2023-10-19T12:03:34;7.85;;;4.90;;
30020;SDS011;16861;52.294;7.760;2023-10-19T12:06:09;6.53;;;4.78;;
30020;SDS011;16861;52.294;7.760;2023-10-19T12:08:37;9.32;;;4.97;;
30020;SDS011;16861;52.294;7.760;2023-10-19T12:11:04;7.65;;;4.82;;
30020;SDS011;16861;52.294;7.760;2023-10-19T12:13:41;8.43;;;5.03;;
30020;SDS011;16861;52.294;7.760;2023-10-19T12:16:10;7.80;;;5.30;;
30020;SDS011;16861;52.294;7.760;2023-10-19T12:18:42;8.85;;;5.18;;
30020;SDS011;16861;52.294;7.760;2023-10-19T12:21:09;9.80;;;5.00;;
30020;SDS011;16861;52.294;7.760;2023-10-19T12:23:43;9.85;;;5.60;;
30020;SDS011;16861;52.294;7.760;2023-10-19T12:26:10;9.98;;;5.70;;
30020;SDS011;16861;52.294;7.760;2023-10-19T12:28:38;9.68;;;6.50;;
30020;SDS011;16861;52.294;7.760;2023-10-19T12:31:04;8.32;;;6.72;;
30020;SDS011;16861;52.294;7.760;2023-10-19T12:33:37;8.40;;;7.20;;
30020;SDS011;16861;52.294;7.760;2023-10-19T12:36:05;8.40;;;7.10;;
30020;SDS011;16861;52.294;7.760;2023-10-19T12:38:55;9.23;;;7.32;;
30020;SDS011;16861;52.294;7.760;2023-10-19T12:41:21;8.32;;;6.97;;
30020;SDS011;16861;52.294;7.760;2023-10-19T12:43:48;9.55;;;7.50;;
30020;SDS011;16861;52.294;7.760;2023-10-19T12:46:18;8.93;;;7.40;;
30020;SDS011;16861;52.294;7.760;2023-10-19T12:48:45;12.13;;;7.88;;
30020;SDS011;16861;52.294;7.760;2023-10-19T12:51:15;10.73;;;8.10;;
30020;SDS011;16861;52.294;7.760;2023-10-19T12:53:44;13.68;;;8.57;;
30020;SDS011;16861;52.294;7.760;2023-10-19T12:56:12;11.05;;;8.40;;
30020;SDS011;16861;52.294;7.760;2023-10-19T12:58:38;10.57;;;8.20;;
30020;SDS011;16861;52.294;7.760;2023-10-19T13:01:05;11.15;;;7.22;;
30020;SDS011;16861;52.294;7.760;2023-10-19T13:03:32;11.50;;;8.52;;
30020;SDS011;16861;52.294;7.760;2023-10-19T13:05:59;16.08;;;8.80;;
30020;SDS011;16861;52.294;7.760;2023-10-19T13:08:30;11.95;;;9.02;;
30020;SDS011;16861;52.294;7.760;2023-10-19T13:10:56;11.23;;;8.75;;
30020;SDS011;16861;52.294;7.760;2023-10-19T13:13:33;10.27;;;8.88;;
30020;SDS011;16861;52.294;7.760;2023-10-19T13:16:02;13.73;;;8.73;;
30020;SDS011;16861;52.294;7.760;2023-10-19T13:18:37;10.07;;;8.35;;
30020;SDS011;16861;52.294;7.760;2023-10-19T13:21:06;13.32;;;9.27;;
30020;SDS011;16861;52.294;7.760;2023-10-19T13:23:35;10.02;;;8.63;;
30020;SDS011;16861;52.294;7.760;2023-10-19T13:26:02;13.05;;;9.35;;
30020;SDS011;16861;52.294;7.760;2023-10-19T13:28:41;10.38;;;8.60;;
30020;SDS011;16861;52.294;7.760;2023-10-19T13:31:08;11.68;;;9.13;;
30020;SDS011;16861;52.294;7.760;2023-10-19T13:36:10;11.32;;;8.55;;
30020;SDS011;16861;52.294;7.760;2023-10-19T13:38:36;11.73;;;8.65;;
30020;SDS011;16861;52.294;7.760;2023-10-19T13:41:04;9.95;;;8.93;;
30020;SDS011;16861;52.294;7.760;2023-10-19T13:43:34;13.05;;;9.38;;
30020;SDS011;16861;52.294;7.760;2023-10-19T13:46:04;10.65;;;9.20;;
30020;SDS011;16861;52.294;7.760;2023-10-19T13:48:31;12.85;;;9.10;;
30020;SDS011;16861;52.294;7.760;2023-10-19T13:50:58;10.38;;;9.00;;
30020;SDS011;16861;52.294;7.760;2023-10-19T13:53:32;10.88;;;8.48;;
30020;SDS011;16861;52.294;7.760;2023-10-19T13:55:58;10.15;;;9.13;;
30020;SDS011;16861;52.294;7.760;2023-10-19T13:58:25;12.35;;;9.13;;
30020;SDS011;16861;52.294;7.760;2023-10-19T14:00:52;9.82;;;8.80;;
30020;SDS011;16861;52.294;7.760;2023-10-19T14:03:18;12.05;;;9.48;;
30020;SDS011;16861;52.294;7.760;2023-10-19T14:05:47;13.15;;;9.68;;
30020;SDS011;16861;52.294;7.760;2023-10-19T14:08:15;10.88;;;9.73;;
30020;SDS011;16861;52.294;7.760;2023-10-19T14:10:43;14.40;;;10.07;;
30020;SDS011;16861;52.294;7.760;2023-10-19T14:13:10;15.50;;;10.40;;
30020;SDS011;16861;52.294;7.760;2023-10-19T14:15:43;12.15;;;9.90;;
30020;SDS011;16861;52.294;7.760;2023-10-19T14:18:10;13.40;;;10.25;;
30020;SDS011;16861;52.294;7.760;2023-10-19T14:20:40;12.80;;;9.95;;
30020;SDS011;16861;52.294;7.760;2023-10-19T14:23:07;14.38;;;10.63;;
30020;SDS011;16861;52.294;7.760;2023-10-19T14:25:37;13.18;;;9.88;;
30020;SDS011;16861;52.294;7.760;2023-10-19T14:28:08;12.98;;;9.85;;
30020;SDS011;16861;52.294;7.760;2023-10-19T14:30:36;15.25;;;10.20;;
30020;SDS011;16861;52.294;7.760;2023-10-19T14:33:02;13.95;;;10.55;;
30020;SDS011;16861;52.294;7.760;2023-10-19T14:35:30;15.45;;;10.77;;
30020;SDS011;16861;52.294;7.760;2023-10-19T14:37:57;13.27;;;9.27;;
30020;SDS011;16861;52.294;7.760;2023-10-19T14:40:27;11.00;;;9.82;;
30020;SDS011;16861;52.294;7.760;2023-10-19T14:42:55;10.85;;;9.75;;
30020;SDS011;16861;52.294;7.760;2023-10-19T14:45:26;13.38;;;10.35;;
30020;SDS011;16861;52.294;7.760;2023-10-19T14:47:57;12.07;;;10.65;;
30020;SDS011;16861;52.294;7.760;2023-10-19T14:50:28;18.17;;;9.98;;
30020;SDS011;16861;52.294;7.760;2023-10-19T14:52:56;14.00;;;10.25;;
30020;SDS011;16861;52.294;7.760;2023-10-19T14:55:23;12.95;;;10.07;;
30020;SDS011;16861;52.294;7.760;2023-10-19T14:57:51;13.73;;;10.98;;
30020;SDS011;16861;52.294;7.760;2023-10-19T15:00:20;13.73;;;11.52;;
30020;SDS011;16861;52.294;7.760;2023-10-19T15:02:48;13.45;;;11.68;;
30020;SDS011;16861;52.294;7.760;2023-10-19T15:05:21;14.80;;;11.57;;
30020;SDS011;16861;52.294;7.760;2023-10-19T15:07:53;12.85;;;11.50;;
30020;SDS011;16861;52.294;7.760;2023-10-19T15:10:25;13.20;;;11.48;;
30020;SDS011;16861;52.294;7.760;2023-10-19T15:12:52;13.75;;;11.55;;
30020;SDS011;16861;52.294;7.760;2023-10-19T15:15:19;13.13;;;11.25;;
30020;SDS011;16861;52.294;7.760;2023-10-19T15:17:47;17.38;;;10.95;;
30020;SDS011;16861;52.294;7.760;2023-10-19T15:20:14;14.00;;;10.88;;
30020;SDS011;16861;52.294;7.760;2023-10-19T15:22:43;14.95;;;11.50;;
30020;SDS011;16861;52.294;7.760;2023-10-19T15:25:11;13.35;;;11.38;;